sensor_id;sensor_type;location;lat;lon;timestamp;temperature;humidity
9820;DHT22;4949;48.482;9.206;2023-11-18T00:01:12;6.70;97.70
9820;DHT22;4949;48.482;9.206;2023-11-18T00:06:15;6.60;97.60
9820;DHT22;4949;48.482;9.206;2023-11-18T00:11:16;6.50;97.30
9820;DHT22;4949;48.482;9.206;2023-11-18T00:16:17;6.60;97.20
9820;DHT22;4949;48.482;9.206;2023-11-18T00:21:20;6.60;97.20
9820;DHT22;4949;48.482;9.206;2023-11-18T00:26:21;6.50;97.20
9820;DHT22;4949;48.482;9.206;2023-11-18T00:31:22;6.60;97.00
9820;DHT22;4949;48.482;9.206;2023-11-18T00:36:25;6.60;97.20
9820;DHT22;4949;48.482;9.206;2023-11-18T00:41:26;6.60;97.10
9820;DHT22;4949;48.482;9.206;2023-11-18T00:46:29;6.90;97.50
9820;DHT22;4949;48.482;9.206;2023-11-18T00:51:34;6.60;97.40
9820;DHT22;4949;48.482;9.206;2023-11-18T00:56:37;6.50;97.40
9820;DHT22;4949;48.482;9.206;2023-11-18T01:01:37;6.50;97.40
9820;DHT22;4949;48.482;9.206;2023-11-18T01:06:42;6.80;97.50
9820;DHT22;4949;48.482;9.206;2023-11-18T01:11:43;6.60;97.30
9820;DHT22;4949;48.482;9.206;2023-11-18T01:16:43;6.50;97.40
9820;DHT22;4949;48.482;9.206;2023-11-18T01:21:44;6.50;97.40
9820;DHT22;4949;48.482;9.206;2023-11-18T01:26:45;6.50;97.60
9820;DHT22;4949;48.482;9.206;2023-11-18T01:31:46;6.40;97.60
9820;DHT22;4949;48.482;9.206;2023-11-18T01:36:49;6.50;97.70
9820;DHT22;4949;48.482;9.206;2023-11-18T01:41:50;6.60;97.80
9820;DHT22;4949;48.482;9.206;2023-11-18T01:46:51;6.50;97.80
9820;DHT22;4949;48.482;9.206;2023-11-18T01:51:52;6.50;97.80
9820;DHT22;4949;48.482;9.206;2023-11-18T01:56:57;6.50;97.80
9820;DHT22;4949;48.482;9.206;2023-11-18T02:01:58;6.50;97.90
9820;DHT22;4949;48.482;9.206;2023-11-18T02:07:00;6.60;97.90
9820;DHT22;4949;48.482;9.206;2023-11-18T02:17:41;6.60;97.50
9820;DHT22;4949;48.482;9.206;2023-11-18T02:22:44;7.00;97.70
9820;DHT22;4949;48.482;9.206;2023-11-18T02:27:46;6.70;97.70
9820;DHT22;4949;48.482;9.206;2023-11-18T02:33:03;6.60;97.60
9820;DHT22;4949;48.482;9.206;2023-11-18T02:38:12;6.70;97.50
9820;DHT22;4949;48.482;9.206;2023-11-18T02:43:15;6.70;97.70
9820;DHT22;4949;48.482;9.206;2023-11-18T02:48:17;6.60;97.70
9820;DHT22;4949;48.482;9.206;2023-11-18T02:53:21;6.60;97.80
9820;DHT22;4949;48.482;9.206;2023-11-18T02:58:21;6.50;97.90
9820;DHT22;4949;48.482;9.206;2023-11-18T03:03:22;6.40;98.20
9820;DHT22;4949;48.482;9.206;2023-11-18T03:08:23;6.40;98.30
9820;DHT22;4949;48.482;9.206;2023-11-18T03:13:30;6.30;98.20
9820;DHT22;4949;48.482;9.206;2023-11-18T03:18:32;6.30;98.30
9820;DHT22;4949;48.482;9.206;2023-11-18T03:23:33;6.20;98.50
9820;DHT22;4949;48.482;9.206;2023-11-18T03:28:34;6.40;98.60
9820;DHT22;4949;48.482;9.206;2023-11-18T03:33:36;6.00;98.80
9820;DHT22;4949;48.482;9.206;2023-11-18T03:38:37;5.90;98.80
9820;DHT22;4949;48.482;9.206;2023-11-18T03:43:39;5.90;98.90
9820;DHT22;4949;48.482;9.206;2023-11-18T03:48:43;5.90;99.00
9820;DHT22;4949;48.482;9.206;2023-11-18T03:53:44;6.20;99.20
9820;DHT22;4949;48.482;9.206;2023-11-18T03:58:45;5.90;99.20
9820;DHT22;4949;48.482;9.206;2023-11-18T04:03:49;5.80;99.30
9820;DHT22;4949;48.482;9.206;2023-11-18T04:08:52;5.80;99.30
9820;DHT22;4949;48.482;9.206;2023-11-18T04:13:54;5.90;99.40
9820;DHT22;4949;48.482;9.206;2023-11-18T04:18:57;5.90;99.50
9820;DHT22;4949;48.482;9.206;2023-11-18T04:23:58;5.80;99.60
9820;DHT22;4949;48.482;9.206;2023-11-18T04:28:58;5.80;99.70
9820;DHT22;4949;48.482;9.206;2023-11-18T04:33:59;5.80;99.80
9820;DHT22;4949;48.482;9.206;2023-11-18T04:39:00;5.90;99.60
9820;DHT22;4949;48.482;9.206;2023-11-18T04:44:01;5.90;99.60
9820;DHT22;4949;48.482;9.206;2023-11-18T04:49:03;5.90;99.70
9820;DHT22;4949;48.482;9.206;2023-11-18T04:54:05;6.00;99.80
9820;DHT22;4949;48.482;9.206;2023-11-18T04:59:08;5.90;99.80
9820;DHT22;4949;48.482;9.206;2023-11-18T05:04:08;5.90;99.90
9820;DHT22;4949;48.482;9.206;2023-11-18T05:09:12;5.90;99.90
9820;DHT22;4949;48.482;9.206;2023-11-18T05:14:12;5.90;99.70
9820;DHT22;4949;48.482;9.206;2023-11-18T05:19:13;5.90;99.80
9820;DHT22;4949;48.482;9.206;2023-11-18T05:24:15;6.20;99.90
9820;DHT22;4949;48.482;9.206;2023-11-18T05:29:18;5.90;99.90
9820;DHT22;4949;48.482;9.206;2023-11-18T05:34:21;5.90;99.90
9820;DHT22;4949;48.482;9.206;2023-11-18T05:39:21;5.90;99.90
9820;DHT22;4949;48.482;9.206;2023-11-18T05:44:24;5.90;99.90
9820;DHT22;4949;48.482;9.206;2023-11-18T05:49:31;5.90;99.90
9820;DHT22;4949;48.482;9.206;2023-11-18T05:54:34;5.90;99.90
9820;DHT22;4949;48.482;9.206;2023-11-18T05:59:35;6.00;99.90
9820;DHT22;4949;48.482;9.206;2023-11-18T06:04:37;6.30;99.90
9820;DHT22;4949;48.482;9.206;2023-11-18T06:09:37;5.80;99.90
9820;DHT22;4949;48.482;9.206;2023-11-18T06:14:38;5.80;99.90
9820;DHT22;4949;48.482;9.206;2023-11-18T06:19:39;5.80;99.90
9820;DHT22;4949;48.482;9.206;2023-11-18T06:24:40;6.20;99.90
9820;DHT22;4949;48.482;9.206;2023-11-18T06:29:43;6.10;99.90
9820;DHT22;4949;48.482;9.206;2023-11-18T06:34:45;5.80;99.90
9820;DHT22;4949;48.482;9.206;2023-11-18T06:39:49;5.80;99.90
9820;DHT22;4949;48.482;9.206;2023-11-18T06:44:50;5.80;99.90
9820;DHT22;4949;48.482;9.206;2023-11-18T06:49:51;5.80;99.90
9820;DHT22;4949;48.482;9.206;2023-11-18T06:54:53;5.80;99.90
9820;DHT22;4949;48.482;9.206;2023-11-18T06:59:55;5.90;99.90
9820;DHT22;4949;48.482;9.206;2023-11-18T07:04:56;5.80;99.90
9820;DHT22;4949;48.482;9.206;2023-11-18T07:09:59;5.40;99.70
9820;DHT22;4949;48.482;9.206;2023-11-18T07:15:00;5.80;99.80
9820;DHT22;4949;48.482;9.206;2023-11-18T07:20:03;6.00;99.90
9820;DHT22;4949;48.482;9.206;2023-11-18T07:25:06;5.80;99.90
9820;DHT22;4949;48.482;9.206;2023-11-18T07:30:10;5.80;99.90
9820;DHT22;4949;48.482;9.206;2023-11-18T07:35:11;5.90;99.90
9820;DHT22;4949;48.482;9.206;2023-11-18T07:40:14;6.00;99.90
9820;DHT22;4949;48.482;9.206;2023-11-18T07:45:23;6.00;99.80
9820;DHT22;4949;48.482;9.206;2023-11-18T07:50:24;6.10;99.50
9820;DHT22;4949;48.482;9.206;2023-11-18T07:55:25;6.10;99.50
9820;DHT22;4949;48.482;9.206;2023-11-18T08:00:27;6.20;99.30
9820;DHT22;4949;48.482;9.206;2023-11-18T08:05:31;6.20;99.40
9820;DHT22;4949;48.482;9.206;2023-11-18T08:10:34;6.20;99.40
9820;DHT22;4949;48.482;9.206;2023-11-18T08:15:38;6.30;98.80
9820;DHT22;4949;48.482;9.206;2023-11-18T08:20:43;6.20;97.90
9820;DHT22;4949;48.482;9.206;2023-11-18T08:25:44;6.20;98.90
9820;DHT22;4949;48.482;9.206;2023-11-18T08:30:47;6.30;99.30
9820;DHT22;4949;48.482;9.206;2023-11-18T08:35:51;6.30;99.10
9820;DHT22;4949;48.482;9.206;2023-11-18T08:40:55;6.30;99.00
9820;DHT22;4949;48.482;9.206;2023-11-18T08:45:58;6.50;99.00
9820;DHT22;4949;48.482;9.206;2023-11-18T08:50:59;6.60;98.60
9820;DHT22;4949;48.482;9.206;2023-11-18T08:56:05;6.40;98.20
9820;DHT22;4949;48.482;9.206;2023-11-18T09:01:06;6.40;98.50
9820;DHT22;4949;48.482;9.206;2023-11-18T09:06:14;6.80;98.30
9820;DHT22;4949;48.482;9.206;2023-11-18T09:11:26;6.60;97.60
9820;DHT22;4949;48.482;9.206;2023-11-18T09:16:33;6.70;97.40
9820;DHT22;4949;48.482;9.206;2023-11-18T09:21:38;6.70;97.40
9820;DHT22;4949;48.482;9.206;2023-11-18T09:26:45;7.10;97.70
9820;DHT22;4949;48.482;9.206;2023-11-18T09:31:50;6.80;97.40
9820;DHT22;4949;48.482;9.206;2023-11-18T09:36:57;6.90;97.20
9820;DHT22;4949;48.482;9.206;2023-11-18T09:41:58;7.00;97.30
9820;DHT22;4949;48.482;9.206;2023-11-18T09:47:08;7.30;97.30
9820;DHT22;4949;48.482;9.206;2023-11-18T09:52:15;7.20;97.00
9820;DHT22;4949;48.482;9.206;2023-11-18T10:02:35;7.50;96.70
9820;DHT22;4949;48.482;9.206;2023-11-18T10:07:41;7.70;97.00
9820;DHT22;4949;48.482;9.206;2023-11-18T10:12:47;7.90;95.00
9820;DHT22;4949;48.482;9.206;2023-11-18T10:18:03;8.10;94.60
9820;DHT22;4949;48.482;9.206;2023-11-18T10:23:17;8.30;94.30
9820;DHT22;4949;48.482;9.206;2023-11-18T10:28:26;8.40;93.10
9820;DHT22;4949;48.482;9.206;2023-11-18T10:33:38;8.60;90.90
9820;DHT22;4949;48.482;9.206;2023-11-18T10:38:47;8.60;91.20
9820;DHT22;4949;48.482;9.206;2023-11-18T10:44:07;9.10;90.20
9820;DHT22;4949;48.482;9.206;2023-11-18T10:49:10;8.80;89.00
9820;DHT22;4949;48.482;9.206;2023-11-18T10:54:10;9.10;87.60
9820;DHT22;4949;48.482;9.206;2023-11-18T10:59:17;9.10;86.30
9820;DHT22;4949;48.482;9.206;2023-11-18T11:04:23;9.10;87.00
9820;DHT22;4949;48.482;9.206;2023-11-18T11:09:25;9.10;86.80
9820;DHT22;4949;48.482;9.206;2023-11-18T11:14:51;9.10;92.20
9820;DHT22;4949;48.482;9.206;2023-11-18T11:25:24;9.00;94.50
9820;DHT22;4949;48.482;9.206;2023-11-18T11:30:29;9.00;94.70
9820;DHT22;4949;48.482;9.206;2023-11-18T11:35:33;9.10;94.40
9820;DHT22;4949;48.482;9.206;2023-11-18T11:40:38;9.00;94.10
9820;DHT22;4949;48.482;9.206;2023-11-18T11:45:42;9.00;94.00
9820;DHT22;4949;48.482;9.206;2023-11-18T11:56:45;9.10;94.50
9820;DHT22;4949;48.482;9.206;2023-11-18T12:01:59;9.20;92.60
9820;DHT22;4949;48.482;9.206;2023-11-18T12:07:05;9.30;92.20
9820;DHT22;4949;48.482;9.206;2023-11-18T12:12:10;9.40;91.10
9820;DHT22;4949;48.482;9.206;2023-11-18T12:17:17;9.40;91.00
9820;DHT22;4949;48.482;9.206;2023-11-18T12:22:27;9.40;92.00
9820;DHT22;4949;48.482;9.206;2023-11-18T12:33:03;9.40;90.90
9820;DHT22;4949;48.482;9.206;2023-11-18T12:43:47;9.30;91.10
9820;DHT22;4949;48.482;9.206;2023-11-18T12:48:56;9.20;91.10
9820;DHT22;4949;48.482;9.206;2023-11-18T12:53:58;9.30;91.50
9820;DHT22;4949;48.482;9.206;2023-11-18T12:59:02;8.90;91.70
9820;DHT22;4949;48.482;9.206;2023-11-18T13:04:06;9.00;92.20
9820;DHT22;4949;48.482;9.206;2023-11-18T13:09:09;8.90;91.60
9820;DHT22;4949;48.482;9.206;2023-11-18T13:14:11;8.80;91.50
9820;DHT22;4949;48.482;9.206;2023-11-18T13:19:29;8.90;91.60
9820;DHT22;4949;48.482;9.206;2023-11-18T13:24:38;8.60;91.70
9820;DHT22;4949;48.482;9.206;2023-11-18T13:29:44;8.50;92.00
9820;DHT22;4949;48.482;9.206;2023-11-18T13:34:50;8.40;91.90
9820;DHT22;4949;48.482;9.206;2023-11-18T13:39:59;8.40;92.10
9820;DHT22;4949;48.482;9.206;2023-11-18T13:45:04;8.40;92.70
9820;DHT22;4949;48.482;9.206;2023-11-18T13:50:12;8.20;92.10
9820;DHT22;4949;48.482;9.206;2023-11-18T13:55:17;8.30;92.40
9820;DHT22;4949;48.482;9.206;2023-11-18T14:00:24;8.20;92.30
9820;DHT22;4949;48.482;9.206;2023-11-18T14:05:27;8.20;92.40
9820;DHT22;4949;48.482;9.206;2023-11-18T14:10:28;8.20;92.20
9820;DHT22;4949;48.482;9.206;2023-11-18T14:15:29;8.30;92.20
9820;DHT22;4949;48.482;9.206;2023-11-18T14:20:30;8.30;92.30
9820;DHT22;4949;48.482;9.206;2023-11-18T14:25:35;8.30;91.70
9820;DHT22;4949;48.482;9.206;2023-11-18T14:30:36;8.60;91.80
9820;DHT22;4949;48.482;9.206;2023-11-18T14:35:37;8.30;91.20
9820;DHT22;4949;48.482;9.206;2023-11-18T14:40:40;8.50;91.30
9820;DHT22;4949;48.482;9.206;2023-11-18T14:45:42;8.30;91.00
9820;DHT22;4949;48.482;9.206;2023-11-18T14:50:43;8.20;91.00
9820;DHT22;4949;48.482;9.206;2023-11-18T14:55:46;8.50;91.30
9820;DHT22;4949;48.482;9.206;2023-11-18T15:00:47;8.50;91.70
9820;DHT22;4949;48.482;9.206;2023-11-18T15:05:48;8.10;91.60
9820;DHT22;4949;48.482;9.206;2023-11-18T15:10:49;8.10;91.60
9820;DHT22;4949;48.482;9.206;2023-11-18T15:15:49;8.10;91.10
9820;DHT22;4949;48.482;9.206;2023-11-18T15:20:50;8.10;91.00
9820;DHT22;4949;48.482;9.206;2023-11-18T15:25:52;8.20;90.90
9820;DHT22;4949;48.482;9.206;2023-11-18T15:30:53;8.20;90.40
9820;DHT22;4949;48.482;9.206;2023-11-18T15:35:54;8.10;90.10
9820;DHT22;4949;48.482;9.206;2023-11-18T15:40:55;8.10;90.10
9820;DHT22;4949;48.482;9.206;2023-11-18T15:45:59;8.20;90.00
9820;DHT22;4949;48.482;9.206;2023-11-18T15:50:59;8.10;89.50
9820;DHT22;4949;48.482;9.206;2023-11-18T15:56:02;8.50;89.70
9820;DHT22;4949;48.482;9.206;2023-11-18T16:01:07;8.10;89.50
9820;DHT22;4949;48.482;9.206;2023-11-18T16:06:10;8.20;90.10
9820;DHT22;4949;48.482;9.206;2023-11-18T16:11:11;8.10;90.10
9820;DHT22;4949;48.482;9.206;2023-11-18T16:16:12;8.20;89.70
9820;DHT22;4949;48.482;9.206;2023-11-18T16:21:13;8.10;89.60
9820;DHT22;4949;48.482;9.206;2023-11-18T16:26:15;8.10;90.10
9820;DHT22;4949;48.482;9.206;2023-11-18T16:31:16;8.00;90.30
9820;DHT22;4949;48.482;9.206;2023-11-18T16:36:21;8.00;90.50
9820;DHT22;4949;48.482;9.206;2023-11-18T16:41:25;8.10;90.60
9820;DHT22;4949;48.482;9.206;2023-11-18T16:46:26;8.50;90.80
9820;DHT22;4949;48.482;9.206;2023-11-18T16:51:32;8.10;90.60
9820;DHT22;4949;48.482;9.206;2023-11-18T16:56:36;8.30;90.90
9820;DHT22;4949;48.482;9.206;2023-11-18T17:01:36;8.00;90.60
9820;DHT22;4949;48.482;9.206;2023-11-18T17:06:37;8.50;90.80
9820;DHT22;4949;48.482;9.206;2023-11-18T17:11:38;8.00;90.40
9820;DHT22;4949;48.482;9.206;2023-11-18T17:16:39;8.00;90.50
9820;DHT22;4949;48.482;9.206;2023-11-18T17:21:41;8.00;90.50
9820;DHT22;4949;48.482;9.206;2023-11-18T17:26:41;8.40;90.60
9820;DHT22;4949;48.482;9.206;2023-11-18T17:31:44;8.00;90.30
9820;DHT22;4949;48.482;9.206;2023-11-18T17:36:46;7.90;90.30
9820;DHT22;4949;48.482;9.206;2023-11-18T17:41:51;8.00;90.40
9820;DHT22;4949;48.482;9.206;2023-11-18T17:46:54;8.00;90.50
9820;DHT22;4949;48.482;9.206;2023-11-18T17:51:55;7.90;90.60
9820;DHT22;4949;48.482;9.206;2023-11-18T17:56:56;7.90;90.70
9820;DHT22;4949;48.482;9.206;2023-11-18T18:01:58;8.00;90.90
9820;DHT22;4949;48.482;9.206;2023-11-18T18:07:01;7.90;90.90
9820;DHT22;4949;48.482;9.206;2023-11-18T18:12:05;7.90;91.10
9820;DHT22;4949;48.482;9.206;2023-11-18T18:17:08;7.80;91.30
9820;DHT22;4949;48.482;9.206;2023-11-18T18:22:11;8.30;91.50
9820;DHT22;4949;48.482;9.206;2023-11-18T18:27:12;7.90;92.00
9820;DHT22;4949;48.482;9.206;2023-11-18T18:32:17;7.90;92.30
9820;DHT22;4949;48.482;9.206;2023-11-18T18:37:18;7.90;92.60
9820;DHT22;4949;48.482;9.206;2023-11-18T18:42:23;7.90;92.90
9820;DHT22;4949;48.482;9.206;2023-11-18T18:47:24;7.90;92.80
9820;DHT22;4949;48.482;9.206;2023-11-18T18:52:27;7.80;93.20
9820;DHT22;4949;48.482;9.206;2023-11-18T18:57:30;7.80;93.70
9820;DHT22;4949;48.482;9.206;2023-11-18T19:02:34;7.80;94.20
9820;DHT22;4949;48.482;9.206;2023-11-18T19:07:37;8.00;94.50
9820;DHT22;4949;48.482;9.206;2023-11-18T19:12:37;7.70;94.70
9820;DHT22;4949;48.482;9.206;2023-11-18T19:17:47;7.70;94.90
9820;DHT22;4949;48.482;9.206;2023-11-18T19:22:51;7.60;94.80
9820;DHT22;4949;48.482;9.206;2023-11-18T19:27:54;7.70;95.00
9820;DHT22;4949;48.482;9.206;2023-11-18T19:32:57;7.80;95.10
9820;DHT22;4949;48.482;9.206;2023-11-18T19:37:58;7.30;94.90
9820;DHT22;4949;48.482;9.206;2023-11-18T19:43:04;7.70;95.30
9820;DHT22;4949;48.482;9.206;2023-11-18T19:48:07;7.80;94.90
9820;DHT22;4949;48.482;9.206;2023-11-18T19:53:08;7.80;95.00
9820;DHT22;4949;48.482;9.206;2023-11-18T19:58:08;7.80;94.80
9820;DHT22;4949;48.482;9.206;2023-11-18T20:03:09;7.80;94.80
9820;DHT22;4949;48.482;9.206;2023-11-18T20:08:12;7.90;95.00
9820;DHT22;4949;48.482;9.206;2023-11-18T20:13:13;8.10;95.30
9820;DHT22;4949;48.482;9.206;2023-11-18T20:18:16;8.00;95.30
9820;DHT22;4949;48.482;9.206;2023-11-18T20:23:23;8.00;95.50
9820;DHT22;4949;48.482;9.206;2023-11-18T20:28:23;8.20;95.40
9820;DHT22;4949;48.482;9.206;2023-11-18T20:33:24;8.40;95.50
9820;DHT22;4949;48.482;9.206;2023-11-18T20:38:28;8.30;95.60
9820;DHT22;4949;48.482;9.206;2023-11-18T20:43:29;8.30;95.80
9820;DHT22;4949;48.482;9.206;2023-11-18T20:48:29;8.40;96.20
9820;DHT22;4949;48.482;9.206;2023-11-18T20:53:54;8.40;96.40
9820;DHT22;4949;48.482;9.206;2023-11-18T20:58:57;8.50;96.40
9820;DHT22;4949;48.482;9.206;2023-11-18T21:04:03;8.50;96.50
9820;DHT22;4949;48.482;9.206;2023-11-18T21:09:15;8.50;96.60
9820;DHT22;4949;48.482;9.206;2023-11-18T21:14:16;8.50;96.90
9820;DHT22;4949;48.482;9.206;2023-11-18T21:19:17;8.20;96.70
9820;DHT22;4949;48.482;9.206;2023-11-18T21:24:21;8.60;96.60
9820;DHT22;4949;48.482;9.206;2023-11-18T21:29:21;8.60;97.00
9820;DHT22;4949;48.482;9.206;2023-11-18T21:34:25;8.60;97.10
9820;DHT22;4949;48.482;9.206;2023-11-18T21:39:25;8.70;96.80
9820;DHT22;4949;48.482;9.206;2023-11-18T21:44:26;8.70;96.40
9820;DHT22;4949;48.482;9.206;2023-11-18T21:49:27;8.70;96.40
9820;DHT22;4949;48.482;9.206;2023-11-18T21:54:34;8.70;96.90
9820;DHT22;4949;48.482;9.206;2023-11-18T21:59:36;8.60;97.20
9820;DHT22;4949;48.482;9.206;2023-11-18T22:04:38;8.50;97.60
9820;DHT22;4949;48.482;9.206;2023-11-18T22:09:39;8.70;98.00
9820;DHT22;4949;48.482;9.206;2023-11-18T22:14:39;8.70;98.70
9820;DHT22;4949;48.482;9.206;2023-11-18T22:19:41;8.40;98.80
9820;DHT22;4949;48.482;9.206;2023-11-18T22:24:45;8.50;99.10
9820;DHT22;4949;48.482;9.206;2023-11-18T22:29:48;8.50;98.50
9820;DHT22;4949;48.482;9.206;2023-11-18T22:34:49;8.50;98.00
9820;DHT22;4949;48.482;9.206;2023-11-18T22:39:53;8.80;98.40
9820;DHT22;4949;48.482;9.206;2023-11-18T22:44:57;8.20;98.60
9820;DHT22;4949;48.482;9.206;2023-11-18T22:49:57;8.20;99.00
9820;DHT22;4949;48.482;9.206;2023-11-18T22:55:00;8.20;99.10
9820;DHT22;4949;48.482;9.206;2023-11-18T23:00:06;8.20;99.50
9820;DHT22;4949;48.482;9.206;2023-11-18T23:05:14;8.30;99.90
9820;DHT22;4949;48.482;9.206;2023-11-18T23:10:18;8.30;99.90
9820;DHT22;4949;48.482;9.206;2023-11-18T23:15:26;8.40;99.90
9820;DHT22;4949;48.482;9.206;2023-11-18T23:20:27;8.50;99.90
9820;DHT22;4949;48.482;9.206;2023-11-18T23:25:28;8.50;99.90
9820;DHT22;4949;48.482;9.206;2023-11-18T23:30:29;8.60;99.90
9820;DHT22;4949;48.482;9.206;2023-11-18T23:35:31;8.60;99.90
9820;DHT22;4949;48.482;9.206;2023-11-18T23:40:35;8.60;99.90
9820;DHT22;4949;48.482;9.206;2023-11-18T23:45:37;8.60;99.90
9820;DHT22;4949;48.482;9.206;2023-11-18T23:50:38;8.80;99.90
9820;DHT22;4949;48.482;9.206;2023-11-18T23:55:39;9.10;99.90
